sensor_id;sensor_type;location;lat;lon;timestamp;P1;durP1;ratioP1;P2;durP2;ratioP2
4808;SDS011;2418;49.930;8.606;2023-07-28T00:00:30;3.85;;;3.65;;
4808;SDS011;2418;49.930;8.606;2023-07-28T00:02:56;4.70;;;4.10;;
4808;SDS011;2418;49.930;8.606;2023-07-28T00:05:22;4.30;;;4.10;;
4808;SDS011;2418;49.930;8.606;2023-07-28T00:07:48;4.65;;;4.45;;
4808;SDS011;2418;49.930;8.606;2023-07-28T00:10:14;6.70;;;4.30;;
4808;SDS011;2418;49.930;8.606;2023-07-28T00:12:40;4.40;;;4.20;;
4808;SDS011;2418;49.930;8.606;2023-07-28T00:15:06;5.00;;;4.50;;
4808;SDS011;2418;49.930;8.606;2023-07-28T00:17:32;4.88;;;4.47;;
4808;SDS011;2418;49.930;8.606;2023-07-28T00:19:58;8.47;;;4.73;;
4808;SDS011;2418;49.930;8.606;2023-07-28T00:22:24;4.60;;;4.30;;
4808;SDS011;2418;49.930;8.606;2023-07-28T00:24:50;4.40;;;4.20;;
4808;SDS011;2418;49.930;8.606;2023-07-28T00:27:16;4.53;;;4.13;;
4808;SDS011;2418;49.930;8.606;2023-07-28T00:29:43;4.63;;;4.35;;
4808;SDS011;2418;49.930;8.606;2023-07-28T00:32:09;6.17;;;4.30;;
4808;SDS011;2418;49.930;8.606;2023-07-28T00:34:35;4.30;;;4.10;;
4808;SDS011;2418;49.930;8.606;2023-07-28T00:37:01;6.72;;;4.30;;
4808;SDS011;2418;49.930;8.606;2023-07-28T00:39:27;4.20;;;3.90;;
4808;SDS011;2418;49.930;8.606;2023-07-28T00:41:53;4.30;;;4.10;;
4808;SDS011;2418;49.930;8.606;2023-07-28T00:44:19;4.50;;;4.10;;
4808;SDS011;2418;49.930;8.606;2023-07-28T00:46:45;4.80;;;4.40;;
4808;SDS011;2418;49.930;8.606;2023-07-28T00:49:10;5.25;;;4.07;;
4808;SDS011;2418;49.930;8.606;2023-07-28T00:51:37;4.65;;;4.45;;
4808;SDS011;2418;49.930;8.606;2023-07-28T00:54:06;4.05;;;3.85;;
4808;SDS011;2418;49.930;8.606;2023-07-28T00:56:32;5.22;;;4.60;;
4808;SDS011;2418;49.930;8.606;2023-07-28T00:58:58;4.20;;;3.90;;
4808;SDS011;2418;49.930;8.606;2023-07-28T01:01:24;4.40;;;4.00;;
4808;SDS011;2418;49.930;8.606;2023-07-28T01:03:50;4.27;;;3.97;;
4808;SDS011;2418;49.930;8.606;2023-07-28T01:06:36;4.53;;;4.32;;
4808;SDS011;2418;49.930;8.606;2023-07-28T01:09:12;4.20;;;4.00;;
4808;SDS011;2418;49.930;8.606;2023-07-28T01:11:56;4.72;;;4.43;;
4808;SDS011;2418;49.930;8.606;2023-07-28T01:14:23;3.57;;;3.47;;
4808;SDS011;2418;49.930;8.606;2023-07-28T01:16:49;4.43;;;4.15;;
4808;SDS011;2418;49.930;8.606;2023-07-28T01:19:17;4.40;;;4.20;;
4808;SDS011;2418;49.930;8.606;2023-07-28T01:21:43;4.60;;;4.30;;
4808;SDS011;2418;49.930;8.606;2023-07-28T01:24:35;9.40;;;4.20;;
4808;SDS011;2418;49.930;8.606;2023-07-28T01:27:08;6.00;;;4.30;;
4808;SDS011;2418;49.930;8.606;2023-07-28T01:29:34;4.90;;;4.40;;
4808;SDS011;2418;49.930;8.606;2023-07-28T01:32:01;6.60;;;4.50;;
4808;SDS011;2418;49.930;8.606;2023-07-28T01:34:26;5.00;;;4.60;;
4808;SDS011;2418;49.930;8.606;2023-07-28T01:36:52;4.97;;;4.47;;
4808;SDS011;2418;49.930;8.606;2023-07-28T01:39:18;7.10;;;4.15;;
4808;SDS011;2418;49.930;8.606;2023-07-28T01:41:44;4.00;;;3.80;;
4808;SDS011;2418;49.930;8.606;2023-07-28T01:44:10;4.45;;;4.15;;
4808;SDS011;2418;49.930;8.606;2023-07-28T01:46:36;4.47;;;4.07;;
4808;SDS011;2418;49.930;8.606;2023-07-28T01:49:02;5.53;;;4.22;;
4808;SDS011;2418;49.930;8.606;2023-07-28T01:51:28;4.30;;;4.10;;
4808;SDS011;2418;49.930;8.606;2023-07-28T01:53:54;4.80;;;4.50;;
4808;SDS011;2418;49.930;8.606;2023-07-28T01:56:20;9.50;;;4.40;;
4808;SDS011;2418;49.930;8.606;2023-07-28T01:58:46;4.40;;;4.10;;
4808;SDS011;2418;49.930;8.606;2023-07-28T02:01:12;4.53;;;4.22;;
4808;SDS011;2418;49.930;8.606;2023-07-28T02:03:38;4.40;;;3.90;;
4808;SDS011;2418;49.930;8.606;2023-07-28T02:06:04;4.28;;;3.92;;
4808;SDS011;2418;49.930;8.606;2023-07-28T02:08:30;3.47;;;3.38;;
4808;SDS011;2418;49.930;8.606;2023-07-28T02:10:56;4.05;;;3.75;;
4808;SDS011;2418;49.930;8.606;2023-07-28T02:13:22;4.30;;;4.10;;
4808;SDS011;2418;49.930;8.606;2023-07-28T02:15:48;3.92;;;3.70;;
4808;SDS011;2418;49.930;8.606;2023-07-28T02:18:14;4.70;;;4.40;;
4808;SDS011;2418;49.930;8.606;2023-07-28T02:20:40;5.05;;;4.63;;
4808;SDS011;2418;49.930;8.606;2023-07-28T02:23:05;5.05;;;4.28;;
4808;SDS011;2418;49.930;8.606;2023-07-28T02:25:31;4.22;;;4.03;;
4808;SDS011;2418;49.930;8.606;2023-07-28T02:27:57;4.30;;;3.90;;
4808;SDS011;2418;49.930;8.606;2023-07-28T02:30:23;4.90;;;4.50;;
4808;SDS011;2418;49.930;8.606;2023-07-28T02:32:49;5.72;;;4.40;;
4808;SDS011;2418;49.930;8.606;2023-07-28T02:35:15;4.00;;;3.80;;
4808;SDS011;2418;49.930;8.606;2023-07-28T02:37:41;4.55;;;4.03;;
4808;SDS011;2418;49.930;8.606;2023-07-28T02:40:08;6.10;;;4.20;;
4808;SDS011;2418;49.930;8.606;2023-07-28T02:42:34;5.47;;;4.97;;
4808;SDS011;2418;49.930;8.606;2023-07-28T02:45:00;4.00;;;3.70;;
4808;SDS011;2418;49.930;8.606;2023-07-28T02:47:26;3.67;;;3.47;;
4808;SDS011;2418;49.930;8.606;2023-07-28T02:49:52;4.00;;;3.70;;
4808;SDS011;2418;49.930;8.606;2023-07-28T02:52:18;3.20;;;3.10;;
4808;SDS011;2418;49.930;8.606;2023-07-28T02:54:44;4.63;;;3.83;;
4808;SDS011;2418;49.930;8.606;2023-07-28T02:57:09;4.37;;;4.10;;
4808;SDS011;2418;49.930;8.606;2023-07-28T02:59:35;3.60;;;3.10;;
4808;SDS011;2418;49.930;8.606;2023-07-28T03:02:01;4.20;;;3.03;;
4808;SDS011;2418;49.930;8.606;2023-07-28T03:04:27;6.82;;;3.88;;
4808;SDS011;2418;49.930;8.606;2023-07-28T03:06:53;3.85;;;3.55;;
4808;SDS011;2418;49.930;8.606;2023-07-28T03:09:19;3.80;;;3.60;;
4808;SDS011;2418;49.930;8.606;2023-07-28T03:11:45;4.20;;;4.00;;
4808;SDS011;2418;49.930;8.606;2023-07-28T03:14:11;3.38;;;3.28;;
4808;SDS011;2418;49.930;8.606;2023-07-28T03:16:39;3.65;;;3.45;;
4808;SDS011;2418;49.930;8.606;2023-07-28T03:19:05;3.50;;;3.40;;
4808;SDS011;2418;49.930;8.606;2023-07-28T03:21:31;4.03;;;3.80;;
4808;SDS011;2418;49.930;8.606;2023-07-28T03:23:57;4.70;;;4.38;;
4808;SDS011;2418;49.930;8.606;2023-07-28T03:26:23;4.07;;;3.88;;
4808;SDS011;2418;49.930;8.606;2023-07-28T03:28:49;4.90;;;4.60;;
4808;SDS011;2418;49.930;8.606;2023-07-28T03:31:15;5.10;;;4.40;;
4808;SDS011;2418;49.930;8.606;2023-07-28T03:33:41;5.22;;;4.93;;
4808;SDS011;2418;49.930;8.606;2023-07-28T03:36:07;4.75;;;4.45;;
4808;SDS011;2418;49.930;8.606;2023-07-28T03:38:33;5.35;;;4.95;;
4808;SDS011;2418;49.930;8.606;2023-07-28T03:40:59;4.40;;;4.20;;
4808;SDS011;2418;49.930;8.606;2023-07-28T03:43:25;4.43;;;4.20;;
4808;SDS011;2418;49.930;8.606;2023-07-28T03:45:52;5.45;;;5.05;;
4808;SDS011;2418;49.930;8.606;2023-07-28T03:48:18;4.30;;;4.10;;
4808;SDS011;2418;49.930;8.606;2023-07-28T03:50:44;5.38;;;4.55;;
4808;SDS011;2418;49.930;8.606;2023-07-28T03:53:10;7.40;;;4.80;;
4808;SDS011;2418;49.930;8.606;2023-07-28T03:55:36;6.25;;;5.00;;
4808;SDS011;2418;49.930;8.606;2023-07-28T03:58:02;5.50;;;5.00;;
4808;SDS011;2418;49.930;8.606;2023-07-28T04:00:31;5.00;;;4.30;;
4808;SDS011;2418;49.930;8.606;2023-07-28T04:02:57;4.32;;;4.05;;
4808;SDS011;2418;49.930;8.606;2023-07-28T04:05:23;6.07;;;4.40;;
4808;SDS011;2418;49.930;8.606;2023-07-28T04:07:49;4.65;;;4.25;;
4808;SDS011;2418;49.930;8.606;2023-07-28T04:10:15;5.22;;;3.70;;
4808;SDS011;2418;49.930;8.606;2023-07-28T04:12:41;4.53;;;4.23;;
4808;SDS011;2418;49.930;8.606;2023-07-28T04:15:07;3.88;;;3.70;;
4808;SDS011;2418;49.930;8.606;2023-07-28T04:17:35;4.00;;;3.70;;
4808;SDS011;2418;49.930;8.606;2023-07-28T04:20:01;4.20;;;4.00;;
4808;SDS011;2418;49.930;8.606;2023-07-28T04:22:27;5.30;;;3.67;;
4808;SDS011;2418;49.930;8.606;2023-07-28T04:24:53;3.60;;;3.40;;
4808;SDS011;2418;49.930;8.606;2023-07-28T04:27:19;3.40;;;3.30;;
4808;SDS011;2418;49.930;8.606;2023-07-28T04:29:45;3.92;;;3.63;;
4808;SDS011;2418;49.930;8.606;2023-07-28T04:32:11;3.40;;;3.20;;
4808;SDS011;2418;49.930;8.606;2023-07-28T04:34:37;3.78;;;3.47;;
4808;SDS011;2418;49.930;8.606;2023-07-28T04:37:03;4.10;;;3.80;;
4808;SDS011;2418;49.930;8.606;2023-07-28T04:39:29;4.50;;;4.10;;
4808;SDS011;2418;49.930;8.606;2023-07-28T04:41:55;4.07;;;3.78;;
4808;SDS011;2418;49.930;8.606;2023-07-28T04:44:21;3.42;;;3.33;;
4808;SDS011;2418;49.930;8.606;2023-07-28T04:46:47;4.30;;;4.00;;
4808;SDS011;2418;49.930;8.606;2023-07-28T04:49:13;3.70;;;3.40;;
4808;SDS011;2418;49.930;8.606;2023-07-28T04:51:39;3.70;;;3.50;;
4808;SDS011;2418;49.930;8.606;2023-07-28T04:54:05;3.50;;;3.20;;
4808;SDS011;2418;49.930;8.606;2023-07-28T04:56:31;3.50;;;3.30;;
4808;SDS011;2418;49.930;8.606;2023-07-28T04:58:57;4.20;;;3.90;;
4808;SDS011;2418;49.930;8.606;2023-07-28T05:01:25;3.90;;;3.63;;
4808;SDS011;2418;49.930;8.606;2023-07-28T05:03:51;3.30;;;3.10;;
4808;SDS011;2418;49.930;8.606;2023-07-28T05:06:17;3.88;;;3.67;;
4808;SDS011;2418;49.930;8.606;2023-07-28T05:08:43;4.25;;;4.00;;
4808;SDS011;2418;49.930;8.606;2023-07-28T05:11:09;4.40;;;4.00;;
4808;SDS011;2418;49.930;8.606;2023-07-28T05:13:35;4.18;;;3.88;;
4808;SDS011;2418;49.930;8.606;2023-07-28T05:16:01;3.47;;;3.30;;
4808;SDS011;2418;49.930;8.606;2023-07-28T05:18:28;3.47;;;3.28;;
4808;SDS011;2418;49.930;8.606;2023-07-28T05:20:54;3.22;;;3.13;;
4808;SDS011;2418;49.930;8.606;2023-07-28T05:23:20;3.70;;;3.40;;
4808;SDS011;2418;49.930;8.606;2023-07-28T05:25:46;3.42;;;3.22;;
4808;SDS011;2418;49.930;8.606;2023-07-28T05:28:12;3.67;;;3.10;;
4808;SDS011;2418;49.930;8.606;2023-07-28T05:30:38;3.05;;;2.95;;
4808;SDS011;2418;49.930;8.606;2023-07-28T05:33:04;3.40;;;3.30;;
4808;SDS011;2418;49.930;8.606;2023-07-28T05:35:30;3.08;;;2.83;;
4808;SDS011;2418;49.930;8.606;2023-07-28T05:37:56;3.13;;;2.97;;
4808;SDS011;2418;49.930;8.606;2023-07-28T05:40:22;3.30;;;3.00;;
4808;SDS011;2418;49.930;8.606;2023-07-28T05:42:48;2.72;;;2.70;;
4808;SDS011;2418;49.930;8.606;2023-07-28T05:45:14;2.90;;;2.80;;
4808;SDS011;2418;49.930;8.606;2023-07-28T05:47:40;3.15;;;3.03;;
4808;SDS011;2418;49.930;8.606;2023-07-28T05:50:06;2.70;;;2.60;;
4808;SDS011;2418;49.930;8.606;2023-07-28T05:52:32;2.88;;;2.58;;
4808;SDS011;2418;49.930;8.606;2023-07-28T05:54:57;7.50;;;3.20;;
4808;SDS011;2418;49.930;8.606;2023-07-28T05:57:23;2.50;;;2.40;;
4808;SDS011;2418;49.930;8.606;2023-07-28T05:59:49;3.22;;;3.13;;
4808;SDS011;2418;49.930;8.606;2023-07-28T06:02:16;2.97;;;2.88;;
4808;SDS011;2418;49.930;8.606;2023-07-28T06:04:42;2.53;;;2.42;;
4808;SDS011;2418;49.930;8.606;2023-07-28T06:07:09;2.80;;;2.60;;
4808;SDS011;2418;49.930;8.606;2023-07-28T06:09:35;2.25;;;2.20;;
4808;SDS011;2418;49.930;8.606;2023-07-28T06:12:01;2.10;;;2.00;;
4808;SDS011;2418;49.930;8.606;2023-07-28T06:14:27;2.67;;;2.58;;
4808;SDS011;2418;49.930;8.606;2023-07-28T06:16:53;3.60;;;2.05;;
4808;SDS011;2418;49.930;8.606;2023-07-28T06:19:19;2.23;;;2.13;;
4808;SDS011;2418;49.930;8.606;2023-07-28T06:21:49;2.20;;;2.10;;
4808;SDS011;2418;49.930;8.606;2023-07-28T06:24:15;1.92;;;1.83;;
4808;SDS011;2418;49.930;8.606;2023-07-28T06:26:41;4.63;;;2.30;;
4808;SDS011;2418;49.930;8.606;2023-07-28T06:29:07;2.40;;;2.30;;
4808;SDS011;2418;49.930;8.606;2023-07-28T06:31:33;6.50;;;5.90;;
4808;SDS011;2418;49.930;8.606;2023-07-28T06:33:59;4.15;;;3.95;;
4808;SDS011;2418;49.930;8.606;2023-07-28T06:36:25;1.58;;;1.58;;
4808;SDS011;2418;49.930;8.606;2023-07-28T06:38:52;1.50;;;1.50;;
4808;SDS011;2418;49.930;8.606;2023-07-28T06:41:20;1.33;;;1.33;;
4808;SDS011;2418;49.930;8.606;2023-07-28T06:43:46;5.60;;;1.50;;
4808;SDS011;2418;49.930;8.606;2023-07-28T06:46:13;1.70;;;1.60;;
4808;SDS011;2418;49.930;8.606;2023-07-28T06:48:39;2.30;;;2.10;;
4808;SDS011;2418;49.930;8.606;2023-07-28T06:51:05;1.55;;;1.45;;
4808;SDS011;2418;49.930;8.606;2023-07-28T06:53:31;2.50;;;1.80;;
4808;SDS011;2418;49.930;8.606;2023-07-28T06:56:00;3.08;;;1.35;;
4808;SDS011;2418;49.930;8.606;2023-07-28T06:58:26;1.48;;;1.35;;
4808;SDS011;2418;49.930;8.606;2023-07-28T07:00:52;1.40;;;1.30;;
4808;SDS011;2418;49.930;8.606;2023-07-28T07:03:20;1.20;;;1.20;;
4808;SDS011;2418;49.930;8.606;2023-07-28T07:05:46;1.20;;;1.20;;
4808;SDS011;2418;49.930;8.606;2023-07-28T07:08:12;1.20;;;1.20;;
4808;SDS011;2418;49.930;8.606;2023-07-28T07:10:38;1.05;;;1.05;;
4808;SDS011;2418;49.930;8.606;2023-07-28T07:13:04;1.20;;;1.20;;
4808;SDS011;2418;49.930;8.606;2023-07-28T07:15:30;0.73;;;0.73;;
4808;SDS011;2418;49.930;8.606;2023-07-28T07:18:00;1.10;;;1.10;;
4808;SDS011;2418;49.930;8.606;2023-07-28T07:20:25;1.20;;;1.20;;
4808;SDS011;2418;49.930;8.606;2023-07-28T07:22:51;2.05;;;1.65;;
4808;SDS011;2418;49.930;8.606;2023-07-28T07:25:17;1.40;;;1.10;;
4808;SDS011;2418;49.930;8.606;2023-07-28T07:27:43;1.00;;;1.00;;
4808;SDS011;2418;49.930;8.606;2023-07-28T07:30:10;1.00;;;0.90;;
4808;SDS011;2418;49.930;8.606;2023-07-28T07:32:36;1.70;;;0.70;;
4808;SDS011;2418;49.930;8.606;2023-07-28T07:35:02;1.00;;;1.00;;
4808;SDS011;2418;49.930;8.606;2023-07-28T07:37:28;0.60;;;0.60;;
4808;SDS011;2418;49.930;8.606;2023-07-28T07:39:56;1.17;;;0.90;;
4808;SDS011;2418;49.930;8.606;2023-07-28T07:42:25;2.30;;;0.80;;
4808;SDS011;2418;49.930;8.606;2023-07-28T07:44:51;0.60;;;0.60;;
4808;SDS011;2418;49.930;8.606;2023-07-28T07:47:16;1.70;;;0.90;;
4808;SDS011;2418;49.930;8.606;2023-07-28T07:49:43;0.90;;;0.90;;
4808;SDS011;2418;49.930;8.606;2023-07-28T07:52:09;0.80;;;0.80;;
4808;SDS011;2418;49.930;8.606;2023-07-28T07:54:35;0.98;;;0.98;;
4808;SDS011;2418;49.930;8.606;2023-07-28T07:57:02;0.60;;;0.60;;
4808;SDS011;2418;49.930;8.606;2023-07-28T07:59:28;1.00;;;1.00;;
4808;SDS011;2418;49.930;8.606;2023-07-28T08:01:57;0.90;;;0.90;;
4808;SDS011;2418;49.930;8.606;2023-07-28T08:04:25;0.93;;;0.93;;
4808;SDS011;2418;49.930;8.606;2023-07-28T08:06:52;0.90;;;0.90;;
4808;SDS011;2418;49.930;8.606;2023-07-28T08:09:19;1.50;;;1.40;;
4808;SDS011;2418;49.930;8.606;2023-07-28T08:11:45;0.85;;;0.85;;
4808;SDS011;2418;49.930;8.606;2023-07-28T08:14:11;0.90;;;0.90;;
4808;SDS011;2418;49.930;8.606;2023-07-28T08:16:36;1.00;;;1.00;;
4808;SDS011;2418;49.930;8.606;2023-07-28T08:19:02;0.90;;;0.90;;
4808;SDS011;2418;49.930;8.606;2023-07-28T08:21:29;0.90;;;0.90;;
4808;SDS011;2418;49.930;8.606;2023-07-28T08:23:56;1.10;;;1.10;;
4808;SDS011;2418;49.930;8.606;2023-07-28T08:26:23;1.20;;;1.20;;
4808;SDS011;2418;49.930;8.606;2023-07-28T08:28:49;1.00;;;1.00;;
4808;SDS011;2418;49.930;8.606;2023-07-28T08:31:16;1.10;;;1.10;;
4808;SDS011;2418;49.930;8.606;2023-07-28T08:33:42;0.90;;;0.90;;
4808;SDS011;2418;49.930;8.606;2023-07-28T08:36:08;0.70;;;0.70;;
4808;SDS011;2418;49.930;8.606;2023-07-28T08:38:34;0.80;;;0.80;;
4808;SDS011;2418;49.930;8.606;2023-07-28T08:41:01;0.70;;;0.70;;
4808;SDS011;2418;49.930;8.606;2023-07-28T08:43:27;0.70;;;0.70;;
4808;SDS011;2418;49.930;8.606;2023-07-28T08:45:54;0.57;;;0.57;;
4808;SDS011;2418;49.930;8.606;2023-07-28T08:48:20;0.50;;;0.50;;
4808;SDS011;2418;49.930;8.606;2023-07-28T08:50:46;0.43;;;0.43;;
4808;SDS011;2418;49.930;8.606;2023-07-28T08:53:12;0.50;;;0.50;;
4808;SDS011;2418;49.930;8.606;2023-07-28T08:55:38;0.80;;;0.80;;
4808;SDS011;2418;49.930;8.606;2023-07-28T08:58:14;0.50;;;0.50;;
4808;SDS011;2418;49.930;8.606;2023-07-28T09:00:40;0.50;;;0.50;;
4808;SDS011;2418;49.930;8.606;2023-07-28T09:03:10;0.70;;;0.70;;
4808;SDS011;2418;49.930;8.606;2023-07-28T09:05:36;1.10;;;1.00;;
4808;SDS011;2418;49.930;8.606;2023-07-28T09:08:05;1.33;;;1.33;;
4808;SDS011;2418;49.930;8.606;2023-07-28T09:13:12;1.00;;;1.00;;
4808;SDS011;2418;49.930;8.606;2023-07-28T09:15:38;1.10;;;1.00;;
4808;SDS011;2418;49.930;8.606;2023-07-28T09:18:07;2.40;;;0.80;;
4808;SDS011;2418;49.930;8.606;2023-07-28T09:20:36;0.95;;;0.95;;
4808;SDS011;2418;49.930;8.606;2023-07-28T09:23:03;0.60;;;0.60;;
4808;SDS011;2418;49.930;8.606;2023-07-28T09:25:30;0.85;;;0.60;;
4808;SDS011;2418;49.930;8.606;2023-07-28T09:27:56;0.60;;;0.60;;
4808;SDS011;2418;49.930;8.606;2023-07-28T09:30:23;0.80;;;0.80;;
4808;SDS011;2418;49.930;8.606;2023-07-28T09:32:50;0.70;;;0.70;;
4808;SDS011;2418;49.930;8.606;2023-07-28T09:35:16;2.40;;;0.60;;
4808;SDS011;2418;49.930;8.606;2023-07-28T09:37:46;1.80;;;0.98;;
4808;SDS011;2418;49.930;8.606;2023-07-28T09:40:17;0.80;;;0.80;;
4808;SDS011;2418;49.930;8.606;2023-07-28T09:42:44;0.80;;;0.80;;
4808;SDS011;2418;49.930;8.606;2023-07-28T09:45:14;0.75;;;0.75;;
4808;SDS011;2418;49.930;8.606;2023-07-28T09:47:40;0.60;;;0.60;;
4808;SDS011;2418;49.930;8.606;2023-07-28T09:50:10;0.80;;;0.80;;
4808;SDS011;2418;49.930;8.606;2023-07-28T09:52:42;0.60;;;0.60;;
4808;SDS011;2418;49.930;8.606;2023-07-28T09:55:09;1.60;;;0.60;;
4808;SDS011;2418;49.930;8.606;2023-07-28T09:57:39;3.00;;;0.60;;
4808;SDS011;2418;49.930;8.606;2023-07-28T10:00:07;0.60;;;0.60;;
4808;SDS011;2418;49.930;8.606;2023-07-28T10:02:35;0.80;;;0.80;;
4808;SDS011;2418;49.930;8.606;2023-07-28T10:05:01;1.20;;;0.88;;
4808;SDS011;2418;49.930;8.606;2023-07-28T10:07:28;0.80;;;0.80;;
4808;SDS011;2418;49.930;8.606;2023-07-28T10:09:54;1.00;;;1.00;;
4808;SDS011;2418;49.930;8.606;2023-07-28T10:12:23;0.90;;;0.90;;
4808;SDS011;2418;49.930;8.606;2023-07-28T10:15:02;0.60;;;0.60;;
4808;SDS011;2418;49.930;8.606;2023-07-28T10:17:34;3.00;;;0.70;;
4808;SDS011;2418;49.930;8.606;2023-07-28T10:20:22;0.70;;;0.50;;
4808;SDS011;2418;49.930;8.606;2023-07-28T10:22:52;0.70;;;0.70;;
4808;SDS011;2418;49.930;8.606;2023-07-28T10:25:22;0.70;;;0.70;;
4808;SDS011;2418;49.930;8.606;2023-07-28T10:27:49;0.70;;;0.70;;
4808;SDS011;2418;49.930;8.606;2023-07-28T10:30:16;0.85;;;0.85;;
4808;SDS011;2418;49.930;8.606;2023-07-28T10:32:42;0.60;;;0.60;;
4808;SDS011;2418;49.930;8.606;2023-07-28T10:35:09;0.80;;;0.80;;
4808;SDS011;2418;49.930;8.606;2023-07-28T10:37:46;0.70;;;0.70;;
4808;SDS011;2418;49.930;8.606;2023-07-28T10:40:29;1.77;;;0.95;;
4808;SDS011;2418;49.930;8.606;2023-07-28T10:42:55;1.20;;;1.10;;
4808;SDS011;2418;49.930;8.606;2023-07-28T10:45:22;1.40;;;1.20;;
4808;SDS011;2418;49.930;8.606;2023-07-28T10:47:51;1.20;;;1.20;;
4808;SDS011;2418;49.930;8.606;2023-07-28T10:50:18;2.10;;;1.30;;
4808;SDS011;2418;49.930;8.606;2023-07-28T10:52:45;1.40;;;1.40;;
4808;SDS011;2418;49.930;8.606;2023-07-28T10:55:12;1.50;;;1.50;;
4808;SDS011;2418;49.930;8.606;2023-07-28T10:57:40;2.40;;;1.70;;
4808;SDS011;2418;49.930;8.606;2023-07-28T11:00:06;1.90;;;1.90;;
4808;SDS011;2418;49.930;8.606;2023-07-28T11:02:33;1.80;;;1.80;;
4808;SDS011;2418;49.930;8.606;2023-07-28T11:04:58;2.20;;;2.10;;
4808;SDS011;2418;49.930;8.606;2023-07-28T11:07:24;1.70;;;1.70;;
4808;SDS011;2418;49.930;8.606;2023-07-28T11:09:51;2.25;;;2.00;;
4808;SDS011;2418;49.930;8.606;2023-07-28T11:12:19;1.40;;;1.40;;
4808;SDS011;2418;49.930;8.606;2023-07-28T11:14:45;1.70;;;1.70;;
4808;SDS011;2418;49.930;8.606;2023-07-28T11:17:11;1.90;;;1.80;;
4808;SDS011;2418;49.930;8.606;2023-07-28T11:19:36;1.83;;;1.73;;
4808;SDS011;2418;49.930;8.606;2023-07-28T11:22:02;2.30;;;2.25;;
4808;SDS011;2418;49.930;8.606;2023-07-28T11:24:28;2.33;;;2.10;;
4808;SDS011;2418;49.930;8.606;2023-07-28T11:26:54;4.70;;;2.10;;
4808;SDS011;2418;49.930;8.606;2023-07-28T11:29:24;2.35;;;2.25;;
4808;SDS011;2418;49.930;8.606;2023-07-28T11:31:50;2.13;;;2.10;;
4808;SDS011;2418;49.930;8.606;2023-07-28T11:34:16;1.88;;;1.88;;
4808;SDS011;2418;49.930;8.606;2023-07-28T11:36:43;1.50;;;1.50;;
4808;SDS011;2418;49.930;8.606;2023-07-28T11:39:11;2.00;;;1.70;;
4808;SDS011;2418;49.930;8.606;2023-07-28T11:41:39;1.40;;;1.30;;
4808;SDS011;2418;49.930;8.606;2023-07-28T11:44:05;1.05;;;1.05;;
4808;SDS011;2418;49.930;8.606;2023-07-28T11:46:40;1.20;;;1.20;;
4808;SDS011;2418;49.930;8.606;2023-07-28T11:49:13;1.08;;;1.08;;
4808;SDS011;2418;49.930;8.606;2023-07-28T11:52:03;1.20;;;1.10;;
4808;SDS011;2418;49.930;8.606;2023-07-28T11:54:31;2.53;;;1.17;;
4808;SDS011;2418;49.930;8.606;2023-07-28T11:56:57;1.50;;;1.40;;
4808;SDS011;2418;49.930;8.606;2023-07-28T11:59:23;1.37;;;1.30;;
4808;SDS011;2418;49.930;8.606;2023-07-28T12:01:53;1.15;;;1.15;;
4808;SDS011;2418;49.930;8.606;2023-07-28T12:04:19;2.70;;;1.42;;
4808;SDS011;2418;49.930;8.606;2023-07-28T12:07:05;1.00;;;1.00;;
4808;SDS011;2418;49.930;8.606;2023-07-28T12:09:32;1.30;;;1.20;;
4808;SDS011;2418;49.930;8.606;2023-07-28T12:11:58;1.20;;;1.20;;
4808;SDS011;2418;49.930;8.606;2023-07-28T12:14:34;1.17;;;1.17;;
4808;SDS011;2418;49.930;8.606;2023-07-28T12:17:00;1.15;;;1.15;;
4808;SDS011;2418;49.930;8.606;2023-07-28T12:19:27;1.23;;;1.23;;
4808;SDS011;2418;49.930;8.606;2023-07-28T12:21:53;1.50;;;1.50;;
4808;SDS011;2418;49.930;8.606;2023-07-28T12:24:21;1.13;;;1.13;;
4808;SDS011;2418;49.930;8.606;2023-07-28T12:26:48;1.20;;;1.20;;
4808;SDS011;2418;49.930;8.606;2023-07-28T12:29:16;2.13;;;1.10;;
4808;SDS011;2418;49.930;8.606;2023-07-28T12:31:41;1.35;;;1.35;;
4808;SDS011;2418;49.930;8.606;2023-07-28T12:34:07;1.58;;;1.17;;
4808;SDS011;2418;49.930;8.606;2023-07-28T12:36:33;1.13;;;1.13;;
4808;SDS011;2418;49.930;8.606;2023-07-28T12:39:00;1.20;;;1.20;;
4808;SDS011;2418;49.930;8.606;2023-07-28T12:41:28;1.80;;;1.30;;
4808;SDS011;2418;49.930;8.606;2023-07-28T12:43:54;1.33;;;1.33;;
4808;SDS011;2418;49.930;8.606;2023-07-28T12:46:20;2.30;;;1.40;;
4808;SDS011;2418;49.930;8.606;2023-07-28T12:48:46;3.13;;;1.23;;
4808;SDS011;2418;49.930;8.606;2023-07-28T12:51:12;2.30;;;2.20;;
4808;SDS011;2418;49.930;8.606;2023-07-28T12:53:38;1.50;;;1.50;;
4808;SDS011;2418;49.930;8.606;2023-07-28T12:56:04;1.25;;;1.25;;
4808;SDS011;2418;49.930;8.606;2023-07-28T12:58:30;1.80;;;1.70;;
4808;SDS011;2418;49.930;8.606;2023-07-28T13:00:58;1.50;;;1.15;;
4808;SDS011;2418;49.930;8.606;2023-07-28T13:03:26;1.00;;;1.00;;
4808;SDS011;2418;49.930;8.606;2023-07-28T13:05:52;1.00;;;1.00;;
4808;SDS011;2418;49.930;8.606;2023-07-28T13:08:18;0.90;;;0.90;;
4808;SDS011;2418;49.930;8.606;2023-07-28T13:10:44;1.20;;;1.20;;
4808;SDS011;2418;49.930;8.606;2023-07-28T13:13:10;1.08;;;1.08;;
4808;SDS011;2418;49.930;8.606;2023-07-28T13:15:36;1.50;;;1.40;;
4808;SDS011;2418;49.930;8.606;2023-07-28T13:18:02;1.00;;;1.00;;
4808;SDS011;2418;49.930;8.606;2023-07-28T13:20:29;2.80;;;1.30;;
4808;SDS011;2418;49.930;8.606;2023-07-28T13:22:55;1.15;;;1.15;;
4808;SDS011;2418;49.930;8.606;2023-07-28T13:25:20;0.70;;;0.70;;
4808;SDS011;2418;49.930;8.606;2023-07-28T13:27:46;0.70;;;0.70;;
4808;SDS011;2418;49.930;8.606;2023-07-28T13:30:12;0.80;;;0.80;;
4808;SDS011;2418;49.930;8.606;2023-07-28T13:32:38;0.80;;;0.80;;
4808;SDS011;2418;49.930;8.606;2023-07-28T13:35:04;1.00;;;1.00;;
4808;SDS011;2418;49.930;8.606;2023-07-28T13:37:32;0.85;;;0.85;;
4808;SDS011;2418;49.930;8.606;2023-07-28T13:39:58;1.02;;;1.02;;
4808;SDS011;2418;49.930;8.606;2023-07-28T13:42:24;1.00;;;1.00;;
4808;SDS011;2418;49.930;8.606;2023-07-28T13:44:50;1.02;;;1.02;;
4808;SDS011;2418;49.930;8.606;2023-07-28T13:47:16;1.20;;;1.20;;
4808;SDS011;2418;49.930;8.606;2023-07-28T13:49:42;1.57;;;1.57;;
4808;SDS011;2418;49.930;8.606;2023-07-28T13:52:08;1.00;;;1.00;;
4808;SDS011;2418;49.930;8.606;2023-07-28T13:54:34;1.23;;;1.13;;
4808;SDS011;2418;49.930;8.606;2023-07-28T13:57:00;2.20;;;1.10;;
4808;SDS011;2418;49.930;8.606;2023-07-28T13:59:26;1.27;;;1.27;;
4808;SDS011;2418;49.930;8.606;2023-07-28T14:01:52;1.30;;;1.30;;
4808;SDS011;2418;49.930;8.606;2023-07-28T14:04:20;1.10;;;1.10;;
4808;SDS011;2418;49.930;8.606;2023-07-28T14:06:46;1.00;;;1.00;;
4808;SDS011;2418;49.930;8.606;2023-07-28T14:09:12;1.10;;;0.90;;
4808;SDS011;2418;49.930;8.606;2023-07-28T14:11:38;1.10;;;1.10;;
4808;SDS011;2418;49.930;8.606;2023-07-28T14:14:04;1.00;;;1.00;;
4808;SDS011;2418;49.930;8.606;2023-07-28T14:16:30;3.00;;;1.20;;
4808;SDS011;2418;49.930;8.606;2023-07-28T14:18:57;1.10;;;1.10;;
4808;SDS011;2418;49.930;8.606;2023-07-28T14:21:23;1.00;;;1.00;;
4808;SDS011;2418;49.930;8.606;2023-07-28T14:23:49;1.42;;;1.33;;
4808;SDS011;2418;49.930;8.606;2023-07-28T14:26:15;1.90;;;1.80;;
4808;SDS011;2418;49.930;8.606;2023-07-28T14:28:42;1.27;;;1.27;;
4808;SDS011;2418;49.930;8.606;2023-07-28T14:31:08;1.20;;;1.20;;
4808;SDS011;2418;49.930;8.606;2023-07-28T14:33:34;1.20;;;1.20;;
4808;SDS011;2418;49.930;8.606;2023-07-28T14:36:00;2.70;;;1.40;;
4808;SDS011;2418;49.930;8.606;2023-07-28T14:38:26;1.23;;;0.90;;
4808;SDS011;2418;49.930;8.606;2023-07-28T14:40:52;1.10;;;1.10;;
4808;SDS011;2418;49.930;8.606;2023-07-28T14:43:18;1.70;;;1.55;;
4808;SDS011;2418;49.930;8.606;2023-07-28T14:45:44;1.20;;;1.20;;
4808;SDS011;2418;49.930;8.606;2023-07-28T14:48:10;3.60;;;1.25;;
4808;SDS011;2418;49.930;8.606;2023-07-28T14:50:37;1.15;;;1.05;;
4808;SDS011;2418;49.930;8.606;2023-07-28T14:53:26;1.25;;;1.15;;
4808;SDS011;2418;49.930;8.606;2023-07-28T14:55:50;1.67;;;1.00;;
4808;SDS011;2418;49.930;8.606;2023-07-28T14:58:16;0.70;;;0.70;;
4808;SDS011;2418;49.930;8.606;2023-07-28T15:00:42;0.80;;;0.80;;
4808;SDS011;2418;49.930;8.606;2023-07-28T15:03:09;1.60;;;1.10;;
4808;SDS011;2418;49.930;8.606;2023-07-28T15:05:35;1.05;;;1.05;;
4808;SDS011;2418;49.930;8.606;2023-07-28T15:08:01;0.90;;;0.90;;
4808;SDS011;2418;49.930;8.606;2023-07-28T15:10:30;1.40;;;1.40;;
4808;SDS011;2418;49.930;8.606;2023-07-28T15:12:56;1.17;;;1.08;;
4808;SDS011;2418;49.930;8.606;2023-07-28T15:15:23;2.30;;;1.00;;